Time;durP1;ratioP1;P1;durP2;ratioP2;P2;SDS_P1;SDS_P2;PMS_P1;PMS_P2;Temp;Humidity;BMP_temperature;BMP_pressure;BME280_temperature;BME280_humidity;BME280_pressure;Samples;Min_cycle;Max_cycle;Signal;HPM_P1;HPM_P2
2022/11/17 00:01:52;;;;;;;8.93;8.02;;;;;;;;;;5052059;28;20385;-85
2022/11/17 00:04:18;;;;;;;8.63;7.72;;;;;;;;;;5052136;28;20460;-86
2022/11/17 00:06:44;;;;;;;7.40;6.80;;;;;;;;;;5051986;28;20409;-86
2022/11/17 00:09:16;;;;;;;8.38;7.63;;;;;;;;;;5051891;28;20438;-86
2022/11/17 00:14:35;;;;;;;7.82;7.18;;;;;;;;;;5048369;28;20421;-86
2022/11/17 00:17:02;;;;;;;7.95;7.18;;;;;;;;;;5042418;28;20373;-85
2022/11/17 00:22:12;;;;;;;7.57;6.88;;;;;;;;;;5048320;28;20428;-86
2022/11/17 00:24:38;;;;;;;7.95;7.13;;;;;;;;;;5039715;28;20389;-86
2022/11/17 00:27:04;;;;;;;7.60;6.80;;;;;;;;;;5037775;28;20406;-86
2022/11/17 00:29:30;;;;;;;7.03;6.33;;;;;;;;;;5037836;28;20369;-85
2022/11/17 00:34:41;;;;;;;7.50;6.80;;;;;;;;;;5052069;28;20920;-86
2022/11/17 00:37:08;;;;;;;9.20;7.20;;;;;;;;;;5043803;28;20462;-85
2022/11/17 00:39:34;;;;;;;7.10;6.50;;;;;;;;;;5042493;28;20391;-85
2022/11/17 00:42:00;;;;;;;6.32;5.82;;;;;;;;;;5042370;28;20478;-86
2022/11/17 00:44:26;;;;;;;7.45;6.00;;;;;;;;;;5051499;28;20395;-85
2022/11/17 00:46:52;;;;;;;8.90;7.32;;;;;;;;;;5050229;28;20401;-86
2022/11/17 00:49:20;;;;;;;7.93;7.23;;;;;;;;;;5051557;28;20877;-85
2022/11/17 00:51:46;;;;;;;7.75;6.95;;;;;;;;;;5051373;28;20735;-85
2022/11/17 00:54:13;;;;;;;7.90;7.20;;;;;;;;;;5051586;28;20373;-86
2022/11/17 00:56:40;;;;;;;8.00;7.22;;;;;;;;;;5046466;28;20838;-86
2022/11/17 00:59:06;;;;;;;9.03;8.13;;;;;;;;;;5046379;28;20862;-86
2022/11/17 01:01:32;;;;;;;9.73;8.73;;;;;;;;;;5044025;28;20400;-86
2022/11/17 01:04:01;;;;;;;8.53;7.73;;;;;;;;;;5028883;28;20455;-85
2022/11/17 01:06:28;;;;;;;8.45;7.55;;;;;;;;;;5042958;28;20406;-86
2022/11/17 01:08:54;;;;;;;9.10;8.20;;;;;;;;;;5036689;28;20426;-86
2022/11/17 01:11:20;;;;;;;10.35;8.18;;;;;;;;;;5031572;28;20884;-86
2022/11/17 01:13:47;;;;;;;8.57;7.70;;;;;;;;;;5033048;28;20391;-85
2022/11/17 01:16:14;;;;;;;8.65;7.75;;;;;;;;;;5030922;28;20375;-86
2022/11/17 01:18:41;;;;;;;9.93;8.27;;;;;;;;;;5032634;28;20383;-86
2022/11/17 01:21:09;;;;;;;10.15;8.02;;;;;;;;;;5029447;28;20852;-86
2022/11/17 01:23:35;;;;;;;8.65;7.75;;;;;;;;;;5030680;28;20394;-84
2022/11/17 01:26:02;;;;;;;8.82;8.02;;;;;;;;;;5033502;28;20375;-85
2022/11/17 01:28:28;;;;;;;8.93;8.02;;;;;;;;;;5031108;28;20398;-86
2022/11/17 01:31:08;;;;;;;8.75;7.88;;;;;;;;;;5031621;28;20731;-84
2022/11/17 01:33:34;;;;;;;10.40;8.90;;;;;;;;;;5030248;28;20379;-87
2022/11/17 01:36:01;;;;;;;8.55;7.75;;;;;;;;;;5030338;28;20462;-86
2022/11/17 01:38:27;;;;;;;11.30;10.10;;;;;;;;;;5029452;28;20458;-87
2022/11/17 01:40:53;;;;;;;11.43;10.32;;;;;;;;;;5033759;28;20845;-85
2022/11/17 01:43:39;;;;;;;9.60;8.70;;;;;;;;;;5031856;28;20383;-85
2022/11/17 01:46:07;;;;;;;10.93;9.93;;;;;;;;;;5025343;28;20418;-86
2022/11/17 01:48:33;;;;;;;11.23;10.13;;;;;;;;;;5030957;28;20849;-88
2022/11/17 01:50:59;;;;;;;11.75;10.50;;;;;;;;;;5032915;28;20386;-88
2022/11/17 01:53:27;;;;;;;11.00;10.05;;;;;;;;;;5031960;28;20418;-86
2022/11/17 01:55:59;;;;;;;11.57;10.45;;;;;;;;;;5032777;28;20379;-88
2022/11/17 01:58:28;;;;;;;10.90;9.90;;;;;;;;;;5035048;28;20383;-87
2022/11/17 02:00:55;;;;;;;10.77;9.77;;;;;;;;;;5034609;28;20410;-88
2022/11/17 02:03:21;;;;;;;10.65;9.65;;;;;;;;;;5053039;28;20789;-88
2022/11/17 02:06:06;;;;;;;10.73;9.75;;;;;;;;;;5054359;28;20472;-87
2022/11/17 02:08:32;;;;;;;9.70;8.80;;;;;;;;;;5054052;28;20393;-87
2022/11/17 02:11:00;;;;;;;9.30;8.07;;;;;;;;;;5054193;28;20404;-87
2022/11/17 02:13:27;;;;;;;9.65;8.65;;;;;;;;;;5054177;28;20806;-87
2022/11/17 02:15:53;;;;;;;8.40;7.60;;;;;;;;;;5047678;28;20750;-88
2022/11/17 02:18:19;;;;;;;9.25;8.45;;;;;;;;;;5035082;28;20386;-86
2022/11/17 02:20:54;;;;;;;9.02;8.13;;;;;;;;;;5040725;28;20382;-87
2022/11/17 02:23:39;;;;;;;9.30;8.25;;;;;;;;;;5046895;28;20403;-87
2022/11/17 02:26:10;;;;;;;9.87;8.93;;;;;;;;;;5053648;28;20819;-87
2022/11/17 02:28:55;;;;;;;10.30;9.30;;;;;;;;;;5053898;28;20431;-87
2022/11/17 02:31:25;;;;;;;8.15;7.45;;;;;;;;;;5053599;28;20390;-87
2022/11/17 02:34:02;;;;;;;8.55;7.75;;;;;;;;;;5033717;28;20400;-87
2022/11/17 02:36:31;;;;;;;8.60;7.80;;;;;;;;;;5041065;28;20381;-87
2022/11/17 02:38:57;;;;;;;9.30;8.40;;;;;;;;;;5053708;28;20388;-87
2022/11/17 02:41:23;;;;;;;8.32;7.70;;;;;;;;;;5053471;28;20389;-87
2022/11/17 02:44:03;;;;;;;8.45;7.85;;;;;;;;;;5053545;28;20469;-87
2022/11/17 02:46:31;;;;;;;8.50;7.80;;;;;;;;;;5053473;28;20413;-87
2022/11/17 02:49:10;;;;;;;8.13;7.35;;;;;;;;;;5053560;28;20388;-88
2022/11/17 02:51:37;;;;;;;8.68;7.80;;;;;;;;;;5053278;28;20373;-87
2022/11/17 02:54:04;;;;;;;9.00;8.20;;;;;;;;;;5041356;28;20442;-87
2022/11/17 02:56:30;;;;;;;9.77;8.00;;;;;;;;;;5036293;28;20858;-87
2022/11/17 02:58:58;;;;;;;9.02;8.23;;;;;;;;;;5022535;28;20390;-87
2022/11/17 03:01:28;;;;;;;17.73;13.02;;;;;;;;;;5035995;28;20412;-88
2022/11/17 03:03:56;;;;;;;33.63;19.90;;;;;;;;;;5065805;28;20407;-87
2022/11/17 03:06:35;;;;;;;33.57;19.73;;;;;;;;;;5067845;28;20412;-85
2022/11/17 03:09:22;;;;;;;28.33;18.05;;;;;;;;;;5072677;28;20377;-85
2022/11/17 03:11:51;;;;;;;16.67;14.48;;;;;;;;;;5059242;28;20468;-87
2022/11/17 03:14:17;;;;;;;13.15;11.18;;;;;;;;;;5050669;28;20377;-87
2022/11/17 03:16:50;;;;;;;10.82;9.90;;;;;;;;;;5057328;28;20386;-88
2022/11/17 03:19:24;;;;;;;10.45;9.50;;;;;;;;;;5047132;28;20926;-87
2022/11/17 03:21:55;;;;;;;12.65;11.45;;;;;;;;;;5052611;28;20435;-88
2022/11/17 03:24:23;;;;;;;13.17;12.17;;;;;;;;;;5053871;28;20377;-87
2022/11/17 03:26:55;;;;;;;11.85;10.77;;;;;;;;;;5053058;28;20483;-88
2022/11/17 03:29:22;;;;;;;12.70;11.50;;;;;;;;;;5053722;28;20464;-88
2022/11/17 03:31:51;;;;;;;10.73;9.73;;;;;;;;;;5053361;28;20378;-88
2022/11/17 03:34:20;;;;;;;11.15;9.95;;;;;;;;;;5052018;28;20394;-89
2022/11/17 03:36:47;;;;;;;10.02;9.23;;;;;;;;;;5043429;28;20416;-88
2022/11/17 03:39:22;;;;;;;9.52;8.80;;;;;;;;;;5037719;28;20398;-88
2022/11/17 03:41:49;;;;;;;9.05;8.25;;;;;;;;;;5041698;28;20382;-85
2022/11/17 03:44:17;;;;;;;9.48;8.57;;;;;;;;;;5052676;28;20420;-87
2022/11/17 03:46:44;;;;;;;8.80;7.97;;;;;;;;;;5052306;28;20409;-89
2022/11/17 03:49:22;;;;;;;9.00;8.10;;;;;;;;;;5052372;28;20382;-88
2022/11/17 03:51:48;;;;;;;9.93;9.02;;;;;;;;;;5050890;28;20873;-88
2022/11/17 03:54:14;;;;;;;10.07;9.07;;;;;;;;;;5052228;28;20468;-87
2022/11/17 03:56:46;;;;;;;8.38;7.68;;;;;;;;;;5047257;28;20720;-87
2022/11/17 03:59:12;;;;;;;9.73;8.83;;;;;;;;;;5052232;28;20514;-88
2022/11/17 04:01:38;;;;;;;10.00;8.43;;;;;;;;;;5050607;28;20480;-88
2022/11/17 04:04:04;;;;;;;9.30;8.50;;;;;;;;;;5051024;28;20396;-88
2022/11/17 04:06:30;;;;;;;8.85;8.05;;;;;;;;;;5051914;28;20866;-89
2022/11/17 04:08:56;;;;;;;9.15;8.45;;;;;;;;;;5051929;28;20405;-86
2022/11/17 04:16:51;;;;;;;40.80;25.80;;;;;;;;;;5048456;28;20463;-88
2022/11/17 04:19:17;;;;;;;69.80;40.22;;;;;;;;;;5051775;28;20738;-88
2022/11/17 04:21:43;;;;;;;9.80;8.90;;;;;;;;;;5051747;28;20407;-88
2022/11/17 04:24:09;;;;;;;8.52;7.80;;;;;;;;;;5037405;28;20920;-88
2022/11/17 04:29:20;;;;;;;8.77;8.07;;;;;;;;;;5038028;28;20466;-87
2022/11/17 04:31:46;;;;;;;8.10;7.40;;;;;;;;;;5036408;28;20403;-87
2022/11/17 04:34:12;;;;;;;8.20;7.53;;;;;;;;;;5048330;28;20738;-87
2022/11/17 04:36:42;;;;;;;7.60;6.60;;;;;;;;;;5051630;28;20456;-88
2022/11/17 04:39:08;;;;;;;8.48;7.63;;;;;;;;;;5051579;28;20798;-88
2022/11/17 04:41:53;;;;;;;8.07;7.47;;;;;;;;;;5051557;28;20381;-87
2022/11/17 04:44:21;;;;;;;10.18;9.27;;;;;;;;;;5051578;28;20393;-87
2022/11/17 04:46:47;;;;;;;10.18;9.18;;;;;;;;;;5051441;28;20441;-86
2022/11/17 04:49:14;;;;;;;10.93;10.02;;;;;;;;;;5051616;28;20405;-87
2022/11/17 04:51:41;;;;;;;9.50;8.57;;;;;;;;;;5045225;28;20391;-87
2022/11/17 04:54:07;;;;;;;8.38;7.57;;;;;;;;;;5043915;28;20381;-87
2022/11/17 04:56:33;;;;;;;7.38;6.78;;;;;;;;;;5046399;28;20393;-87
2022/11/17 04:58:59;;;;;;;7.32;6.72;;;;;;;;;;5051450;28;20936;-87
2022/11/17 05:01:26;;;;;;;6.22;5.72;;;;;;;;;;5051333;28;20758;-88
2022/11/17 05:03:52;;;;;;;4.95;4.45;;;;;;;;;;5051506;28;20385;-87
2022/11/17 05:06:20;;;;;;;4.87;4.47;;;;;;;;;;5051227;28;20392;-86
2022/11/17 05:08:46;;;;;;;4.40;4.10;;;;;;;;;;5051368;28;20439;-88
2022/11/17 05:13:57;;;;;;;4.70;4.30;;;;;;;;;;5051238;28;20372;-87
2022/11/17 05:19:10;;;;;;;4.28;3.97;;;;;;;;;;5050068;28;20500;-87
2022/11/17 05:21:36;;;;;;;6.10;5.50;;;;;;;;;;5049518;28;20389;-86
2022/11/17 05:24:02;;;;;;;5.25;4.75;;;;;;;;;;5024233;28;20413;-86
2022/11/17 05:26:29;;;;;;;4.72;4.22;;;;;;;;;;5028034;28;20421;-86
2022/11/17 05:28:56;;;;;;;5.00;4.50;;;;;;;;;;5024301;28;20451;-86
2022/11/17 05:31:22;;;;;;;4.10;3.80;;;;;;;;;;5047435;28;20406;-86
2022/11/17 05:33:48;;;;;;;7.50;3.80;;;;;;;;;;5047550;28;20383;-87
2022/11/17 05:36:14;;;;;;;3.53;3.23;;;;;;;;;;5054834;28;20567;-86
2022/11/17 05:38:41;;;;;;;3.90;3.17;;;;;;;;;;5046036;28;20387;-87
2022/11/17 05:41:07;;;;;;;4.20;3.90;;;;;;;;;;5038203;28;20382;-86
2022/11/17 05:43:33;;;;;;;3.80;3.42;;;;;;;;;;5054673;28;20384;-85
2022/11/17 05:45:59;;;;;;;3.80;3.50;;;;;;;;;;5054594;28;20381;-86
2022/11/17 05:48:25;;;;;;;4.10;3.80;;;;;;;;;;5054552;28;20401;-86
2022/11/17 05:50:52;;;;;;;4.22;3.42;;;;;;;;;;5040922;28;20860;-86
2022/11/17 05:53:18;;;;;;;3.90;3.60;;;;;;;;;;5054347;28;20381;-86
2022/11/17 05:55:44;;;;;;;4.50;4.13;;;;;;;;;;5051763;28;20377;-87
2022/11/17 05:58:19;;;;;;;4.10;3.80;;;;;;;;;;5052316;28;20419;-87
2022/11/17 06:00:45;;;;;;;5.85;4.72;;;;;;;;;;5054196;28;20386;-87
2022/11/17 06:03:17;;;;;;;5.25;4.82;;;;;;;;;;5054599;28;20468;-87
2022/11/17 06:05:43;;;;;;;5.30;4.80;;;;;;;;;;5054470;28;20397;-86
2022/11/17 06:08:09;;;;;;;5.68;5.07;;;;;;;;;;5054128;28;20879;-87
2022/11/17 06:10:35;;;;;;;5.17;4.77;;;;;;;;;;5054110;28;20385;-86
2022/11/17 06:13:01;;;;;;;5.25;4.60;;;;;;;;;;5054096;28;20390;-87
2022/11/17 06:15:28;;;;;;;4.80;4.30;;;;;;;;;;5054096;28;20388;-86
2022/11/17 06:17:56;;;;;;;5.00;4.60;;;;;;;;;;5054108;28;20396;-87
2022/11/17 06:20:24;;;;;;;4.53;4.13;;;;;;;;;;5052538;28;20392;-87
2022/11/17 06:22:50;;;;;;;4.60;4.17;;;;;;;;;;5051092;28;20421;-86
2022/11/17 06:25:18;;;;;;;4.35;4.05;;;;;;;;;;5042770;28;20421;-87
2022/11/17 06:27:44;;;;;;;5.20;4.70;;;;;;;;;;5051504;28;20409;-86
2022/11/17 06:30:10;;;;;;;4.57;4.18;;;;;;;;;;5034515;28;20415;-87
2022/11/17 06:32:37;;;;;;;4.13;3.80;;;;;;;;;;5064916;28;20373;-86
2022/11/17 06:35:05;;;;;;;3.85;3.47;;;;;;;;;;5060906;28;20381;-87
2022/11/17 06:37:30;;;;;;;5.78;4.97;;;;;;;;;;5069242;28;20393;-86
2022/11/17 06:39:56;;;;;;;4.75;4.30;;;;;;;;;;5071737;28;20547;-87
2022/11/17 06:43:02;;;;;;;5.50;4.60;;;;;;;;;;5070421;28;20409;-86
2022/11/17 06:45:09;;;;;;;4.30;4.00;;;;;;;;;;5066509;28;20385;-86
2022/11/17 06:47:35;;;;;;;4.82;4.35;;;;;;;;;;5049416;28;20403;-86
2022/11/17 06:50:01;;;;;;;4.93;4.50;;;;;;;;;;5054202;28;20460;-86
2022/11/17 06:52:27;;;;;;;4.53;4.13;;;;;;;;;;5053736;28;20720;-86
2022/11/17 06:54:53;;;;;;;4.47;4.07;;;;;;;;;;5053575;28;20384;-86
2022/11/17 06:57:19;;;;;;;5.40;4.90;;;;;;;;;;5048321;28;20388;-86
2022/11/17 06:59:45;;;;;;;4.80;4.40;;;;;;;;;;5052034;28;20393;-86
2022/11/17 07:02:11;;;;;;;4.43;4.07;;;;;;;;;;5053497;28;20869;-86
2022/11/17 07:04:37;;;;;;;4.60;4.20;;;;;;;;;;5053925;28;20393;-86
2022/11/17 07:07:03;;;;;;;4.80;4.40;;;;;;;;;;5053293;28;20405;-87
2022/11/17 07:09:29;;;;;;;5.27;4.73;;;;;;;;;;5053338;28;20373;-87
2022/11/17 07:11:55;;;;;;;5.32;4.82;;;;;;;;;;5046988;28;20373;-87
2022/11/17 07:14:21;;;;;;;4.57;4.18;;;;;;;;;;5040687;28;20739;-89
2022/11/17 07:16:47;;;;;;;5.10;4.60;;;;;;;;;;5053164;28;20378;-89
2022/11/17 07:19:13;;;;;;;5.43;4.93;;;;;;;;;;5053197;28;20377;-89
2022/11/17 07:21:39;;;;;;;5.38;4.88;;;;;;;;;;5053059;28;20472;-88
2022/11/17 07:24:05;;;;;;;6.10;5.43;;;;;;;;;;5053007;28;20397;-89
2022/11/17 07:26:31;;;;;;;5.82;5.32;;;;;;;;;;5044755;28;20899;-89
2022/11/17 07:28:57;;;;;;;6.03;5.45;;;;;;;;;;5048281;28;20390;-89
2022/11/17 07:31:23;;;;;;;6.20;5.60;;;;;;;;;;5052562;28;20385;-89
2022/11/17 07:33:49;;;;;;;6.22;5.20;;;;;;;;;;5039492;28;20473;-88
2022/11/17 07:36:15;;;;;;;6.40;5.07;;;;;;;;;;5052543;28;20378;-88
2022/11/17 07:38:42;;;;;;;6.03;5.43;;;;;;;;;;5052511;28;20396;-87
2022/11/17 07:41:09;;;;;;;5.80;5.30;;;;;;;;;;5052304;28;20377;-88
2022/11/17 07:43:35;;;;;;;6.03;5.43;;;;;;;;;;5052598;28;20390;-89
2022/11/17 07:46:05;;;;;;;6.22;5.72;;;;;;;;;;5052620;28;20381;-89
2022/11/17 07:48:31;;;;;;;6.95;6.35;;;;;;;;;;5035038;28;20962;-87
2022/11/17 07:51:00;;;;;;;11.20;9.20;;;;;;;;;;5038242;28;20380;-89
2022/11/17 07:53:27;;;;;;;7.60;6.90;;;;;;;;;;5052498;28;20873;-89
2022/11/17 07:55:53;;;;;;;9.65;7.68;;;;;;;;;;5048193;28;20382;-87
2022/11/17 07:58:19;;;;;;;6.70;6.10;;;;;;;;;;5051492;28;20386;-88
2022/11/17 08:00:45;;;;;;;7.15;6.47;;;;;;;;;;5052294;28;20401;-89
2022/11/17 08:03:11;;;;;;;6.45;5.85;;;;;;;;;;5052028;28;20424;-89
2022/11/17 08:05:38;;;;;;;7.00;6.50;;;;;;;;;;5052283;28;20409;-89
2022/11/17 08:08:04;;;;;;;7.72;7.03;;;;;;;;;;5052114;28;20412;-88
2022/11/17 08:10:31;;;;;;;6.88;6.28;;;;;;;;;;5052045;28;20427;-90
2022/11/17 08:12:59;;;;;;;6.40;5.90;;;;;;;;;;5051910;28;20385;-89
2022/11/17 08:15:26;;;;;;;6.80;6.20;;;;;;;;;;5051846;28;20386;-88
2022/11/17 08:17:53;;;;;;;6.72;6.07;;;;;;;;;;5052072;28;20388;-89
2022/11/17 08:20:19;;;;;;;6.38;5.72;;;;;;;;;;5052011;28;20862;-88
2022/11/17 08:22:46;;;;;;;5.90;5.50;;;;;;;;;;5039937;28;20871;-89
2022/11/17 08:25:12;;;;;;;5.07;4.60;;;;;;;;;;5042998;28;20381;-88
2022/11/17 08:27:38;;;;;;;5.32;4.93;;;;;;;;;;5040940;28;20438;-88
2022/11/17 08:30:06;;;;;;;5.75;5.25;;;;;;;;;;5034879;28;20419;-89
2022/11/17 08:32:32;;;;;;;6.72;6.20;;;;;;;;;;5048634;28;20385;-88
2022/11/17 08:34:58;;;;;;;7.72;7.00;;;;;;;;;;5041448;28;20760;-88
2022/11/17 08:37:25;;;;;;;8.40;7.60;;;;;;;;;;5046715;28;20381;-87
2022/11/17 08:39:50;;;;;;;8.02;7.32;;;;;;;;;;5051615;28;20377;-87
2022/11/17 08:42:16;;;;;;;9.45;8.55;;;;;;;;;;5046062;28;20388;-87
2022/11/17 08:44:42;;;;;;;7.18;6.63;;;;;;;;;;5051584;28;20381;-87
2022/11/17 08:47:08;;;;;;;7.65;6.95;;;;;;;;;;5051536;28;20409;-88
2022/11/17 08:49:34;;;;;;;7.10;6.50;;;;;;;;;;5051531;28;20385;-87
2022/11/17 08:52:00;;;;;;;7.80;7.18;;;;;;;;;;5051526;28;20401;-89
2022/11/17 08:54:26;;;;;;;7.40;5.47;;;;;;;;;;5035972;28;20759;-87
2022/11/17 08:56:56;;;;;;;5.07;4.65;;;;;;;;;;5046445;28;20384;-88
2022/11/17 08:59:22;;;;;;;4.53;4.13;;;;;;;;;;5052649;28;20377;-89
2022/11/17 09:01:48;;;;;;;7.22;5.57;;;;;;;;;;5055340;28;20394;-88
2022/11/17 09:04:14;;;;;;;5.53;4.87;;;;;;;;;;5053238;28;20397;-88
2022/11/17 09:06:40;;;;;;;5.47;4.88;;;;;;;;;;5053048;28;20405;-89
2022/11/17 09:09:06;;;;;;;5.20;4.80;;;;;;;;;;5051457;28;20398;-89
2022/11/17 09:11:32;;;;;;;4.95;4.45;;;;;;;;;;5050621;28;20416;-88
2022/11/17 09:13:58;;;;;;;5.53;3.85;;;;;;;;;;5053421;28;20850;-87
2022/11/17 09:16:24;;;;;;;5.33;4.03;;;;;;;;;;5045142;28;20877;-88
2022/11/17 09:18:54;;;;;;;4.70;3.83;;;;;;;;;;5050082;28;20394;-87
2022/11/17 09:21:20;;;;;;;3.97;3.58;;;;;;;;;;5052534;28;20394;-88
2022/11/17 09:23:46;;;;;;;3.45;3.10;;;;;;;;;;5040645;28;20390;-87
2022/11/17 09:26:13;;;;;;;3.85;3.35;;;;;;;;;;5051015;28;20752;-88
2022/11/17 09:28:39;;;;;;;4.18;2.78;;;;;;;;;;5048236;28;20492;-88
2022/11/17 09:31:06;;;;;;;3.13;2.50;;;;;;;;;;5053504;28;20385;-89
2022/11/17 09:33:32;;;;;;;4.10;2.47;;;;;;;;;;5041259;28;20788;-88
2022/11/17 09:35:58;;;;;;;3.15;2.92;;;;;;;;;;5023504;28;20385;-88
2022/11/17 09:38:24;;;;;;;3.25;2.10;;;;;;;;;;5024589;28;20387;-88
2022/11/17 09:40:53;;;;;;;2.33;2.10;;;;;;;;;;5045601;28;20374;-87
2022/11/17 09:43:25;;;;;;;2.20;2.00;;;;;;;;;;5040075;28;20381;-87
2022/11/17 09:45:52;;;;;;;2.97;2.00;;;;;;;;;;5054671;28;20862;-87
2022/11/17 09:48:21;;;;;;;2.78;1.63;;;;;;;;;;5054757;28;20412;-87
2022/11/17 09:50:48;;;;;;;2.88;1.50;;;;;;;;;;5054781;28;20386;-88
2022/11/17 09:53:24;;;;;;;2.78;1.60;;;;;;;;;;5055022;28;20837;-88
2022/11/17 09:55:53;;;;;;;4.57;1.20;;;;;;;;;;5029735;28;20390;-87
2022/11/17 09:58:31;;;;;;;2.67;1.27;;;;;;;;;;5045859;28;20397;-87
2022/11/17 10:00:57;;;;;;;3.75;1.10;;;;;;;;;;5020529;28;20393;-87
2022/11/17 10:03:29;;;;;;;3.45;1.00;;;;;;;;;;5052649;28;20397;-87
2022/11/17 10:05:55;;;;;;;3.35;1.20;;;;;;;;;;5046698;28;20898;-86
2022/11/17 10:08:40;;;;;;;4.18;1.08;;;;;;;;;;5056932;28;20463;-86
2022/11/17 10:13:56;;;;;;;4.23;1.07;;;;;;;;;;5045704;28;20473;-86
2022/11/17 10:16:22;;;;;;;2.78;0.85;;;;;;;;;;5030471;28;20423;-87
2022/11/17 10:18:48;;;;;;;3.57;0.90;;;;;;;;;;5044702;28;20431;-88
2022/11/17 10:21:14;;;;;;;2.67;1.00;;;;;;;;;;5039697;28;20395;-86
2022/11/17 10:23:43;;;;;;;2.47;0.93;;;;;;;;;;5050377;28;20412;-87
2022/11/17 10:26:13;;;;;;;2.80;0.80;;;;;;;;;;5050214;28;20371;-87
2022/11/17 10:28:39;;;;;;;3.83;0.95;;;;;;;;;;5036840;28;20808;-87
2022/11/17 10:31:16;;;;;;;4.20;1.20;;;;;;;;;;5032428;28;20985;-86
2022/11/17 10:33:49;;;;;;;3.60;1.00;;;;;;;;;;5034258;28;20478;-86
2022/11/17 10:36:23;;;;;;;3.08;0.90;;;;;;;;;;5053572;28;20416;-88
2022/11/17 10:38:51;;;;;;;4.93;1.60;;;;;;;;;;5052074;28;20390;-86
2022/11/17 10:41:18;;;;;;;4.83;1.50;;;;;;;;;;5051097;28;20404;-87
2022/11/17 10:43:53;;;;;;;3.87;1.50;;;;;;;;;;5053669;28;20381;-87
2022/11/17 10:46:19;;;;;;;3.43;1.27;;;;;;;;;;5053696;28;20439;-88
2022/11/17 10:48:56;;;;;;;4.40;1.25;;;;;;;;;;5053686;28;20409;-86
2022/11/17 10:51:23;;;;;;;3.30;1.48;;;;;;;;;;5053687;28;20745;-87
2022/11/17 10:54:06;;;;;;;4.47;1.25;;;;;;;;;;5053555;28;20370;-87
2022/11/17 10:56:43;;;;;;;5.20;1.40;;;;;;;;;;5048387;28;20380;-88
2022/11/17 10:59:20;;;;;;;3.38;1.20;;;;;;;;;;5041427;28;20914;-87
2022/11/17 11:01:49;;;;;;;4.20;1.60;;;;;;;;;;5052815;28;20398;-86
2022/11/17 11:04:34;;;;;;;4.63;1.58;;;;;;;;;;5053416;28;20451;-86
2022/11/17 11:07:08;;;;;;;5.95;1.27;;;;;;;;;;5051912;28;20807;-87
2022/11/17 11:09:35;;;;;;;4.18;1.35;;;;;;;;;;5047400;28;20418;-87
2022/11/17 11:12:02;;;;;;;4.05;1.23;;;;;;;;;;5016187;28;20384;-88
2022/11/17 11:14:43;;;;;;;3.80;1.20;;;;;;;;;;5046012;28;20942;-88
2022/11/17 11:17:13;;;;;;;5.75;1.30;;;;;;;;;;5052920;28;20377;-88
2022/11/17 11:19:40;;;;;;;5.47;1.45;;;;;;;;;;5031005;28;20473;-87
2022/11/17 11:22:15;;;;;;;5.15;1.50;;;;;;;;;;5052776;28;20468;-88
2022/11/17 11:24:53;;;;;;;5.32;1.40;;;;;;;;;;5036925;28;20484;-88
2022/11/17 11:27:38;;;;;;;5.90;1.40;;;;;;;;;;5033259;28;20403;-88
2022/11/17 11:30:06;;;;;;;4.47;1.60;;;;;;;;;;5051866;28;20369;-88
2022/11/17 11:32:50;;;;;;;3.60;1.42;;;;;;;;;;5022939;28;20878;-88
2022/11/17 11:35:22;;;;;;;5.93;1.70;;;;;;;;;;5052698;28;20409;-86
2022/11/17 11:37:54;;;;;;;3.80;1.60;;;;;;;;;;5039014;28;20383;-86
2022/11/17 11:40:25;;;;;;;3.78;1.33;;;;;;;;;;5043909;28;20389;-86
2022/11/17 11:42:58;;;;;;;5.35;1.52;;;;;;;;;;5052340;28;20404;-87
2022/11/17 11:45:33;;;;;;;4.38;1.35;;;;;;;;;;5052545;28;20589;-86
2022/11/17 11:48:30;;;;;;;3.25;1.23;;;;;;;;;;5052302;28;20428;-86
2022/11/17 11:50:56;;;;;;;5.15;1.67;;;;;;;;;;5046928;28;20386;-87
2022/11/17 11:53:44;;;;;;;3.95;1.48;;;;;;;;;;5052405;28;20380;-86
2022/11/17 11:56:10;;;;;;;4.18;1.48;;;;;;;;;;5047230;28;20602;-87
2022/11/17 11:58:40;;;;;;;3.60;1.30;;;;;;;;;;5052366;28;20941;-85
2022/11/17 12:01:07;;;;;;;4.10;1.27;;;;;;;;;;5052159;28;20459;-85
2022/11/17 12:03:34;;;;;;;3.72;1.13;;;;;;;;;;5052369;28;20469;-86
2022/11/17 12:09:22;;;;;;;5.45;1.50;;;;;;;;;;5052078;28;20396;-86
2022/11/17 12:12:01;;;;;;;3.80;1.10;;;;;;;;;;5051755;28;20388;-86
2022/11/17 12:14:34;;;;;;;5.45;1.17;;;;;;;;;;5052049;28;20973;-85
2022/11/17 12:17:03;;;;;;;3.85;1.30;;;;;;;;;;5052202;28;20409;-87
2022/11/17 12:19:47;;;;;;;5.93;1.42;;;;;;;;;;5046087;28;20431;-89
2022/11/17 12:22:22;;;;;;;4.03;1.40;;;;;;;;;;5051845;28;20382;-87
2022/11/17 12:24:48;;;;;;;4.15;1.02;;;;;;;;;;5050741;28;20843;-87
2022/11/17 12:27:33;;;;;;;4.45;1.40;;;;;;;;;;5025965;28;20918;-88
2022/11/17 12:29:59;;;;;;;3.60;1.27;;;;;;;;;;5041792;28;20385;-87
2022/11/17 12:32:50;;;;;;;4.53;1.30;;;;;;;;;;5038319;28;20415;-87
2022/11/17 12:35:24;;;;;;;5.15;1.50;;;;;;;;;;5043002;28;20405;-87
2022/11/17 12:38:09;;;;;;;4.32;1.50;;;;;;;;;;5051754;28;20420;-86
2022/11/17 12:40:34;;;;;;;5.57;2.40;;;;;;;;;;5051621;28;20737;-87
2022/11/17 12:43:12;;;;;;;3.00;1.20;;;;;;;;;;5051560;28;20377;-87
2022/11/17 12:45:57;;;;;;;6.57;1.75;;;;;;;;;;5051712;28;20417;-87
2022/11/17 12:48:25;;;;;;;4.50;2.05;;;;;;;;;;5051510;28;20401;-86
2022/11/17 12:50:55;;;;;;;3.22;1.27;;;;;;;;;;5015482;28;20392;-87
2022/11/17 12:53:33;;;;;;;4.03;1.67;;;;;;;;;;5023829;28;20373;-86
2022/11/17 12:56:25;;;;;;;4.05;1.45;;;;;;;;;;5046885;28;20375;-86
2022/11/17 12:58:52;;;;;;;4.22;1.27;;;;;;;;;;5016182;28;20396;-87
2022/11/17 13:01:37;;;;;;;4.07;1.23;;;;;;;;;;5042913;28;20397;-88
2022/11/17 13:04:12;;;;;;;4.32;1.20;;;;;;;;;;5051621;28;20374;-86
2022/11/17 13:06:38;;;;;;;3.58;1.40;;;;;;;;;;5047563;28;20409;-89
2022/11/17 13:09:06;;;;;;;5.20;1.60;;;;;;;;;;5051312;28;20543;-87
2022/11/17 13:11:32;;;;;;;4.50;1.48;;;;;;;;;;5051268;28;20374;-87
2022/11/17 13:14:08;;;;;;;3.80;1.40;;;;;;;;;;5050078;28;20386;-87
2022/11/17 13:16:36;;;;;;;4.82;1.35;;;;;;;;;;5049107;28;20839;-87
2022/11/17 13:19:02;;;;;;;3.63;1.20;;;;;;;;;;5051521;28;20373;-86
2022/11/17 13:21:29;;;;;;;3.92;1.20;;;;;;;;;;5051341;28;20435;-88
2022/11/17 13:23:56;;;;;;;4.40;1.40;;;;;;;;;;5051222;28;20378;-87
2022/11/17 13:26:24;;;;;;;5.07;1.50;;;;;;;;;;5045810;28;20379;-88
2022/11/17 13:29:02;;;;;;;3.70;1.40;;;;;;;;;;5045753;28;20405;-87
2022/11/17 13:31:28;;;;;;;3.42;1.27;;;;;;;;;;5049968;28;20378;-87
2022/11/17 13:34:01;;;;;;;3.40;1.15;;;;;;;;;;5037324;28;20387;-87
2022/11/17 13:36:27;;;;;;;4.87;1.40;;;;;;;;;;5051417;28;20385;-88
2022/11/17 13:38:56;;;;;;;4.07;1.15;;;;;;;;;;5052695;28;20381;-87
2022/11/17 13:41:23;;;;;;;3.78;1.17;;;;;;;;;;5066760;28;20389;-88
2022/11/17 13:43:50;;;;;;;4.57;1.08;;;;;;;;;;5057693;28;20375;-87
2022/11/17 13:46:16;;;;;;;2.80;0.88;;;;;;;;;;5066778;28;20394;-87
2022/11/17 13:48:44;;;;;;;2.85;0.75;;;;;;;;;;5076471;28;20405;-86
2022/11/17 13:51:40;;;;;;;2.88;1.20;;;;;;;;;;5067691;28;20469;-88
2022/11/17 13:54:13;;;;;;;2.00;0.88;;;;;;;;;;5058889;28;20444;-87
2022/11/17 13:56:40;;;;;;;2.25;1.30;;;;;;;;;;5051766;28;20414;-87
2022/11/17 13:59:26;;;;;;;4.18;0.90;;;;;;;;;;5055928;28;20378;-87
2022/11/17 14:02:10;;;;;;;3.13;0.90;;;;;;;;;;5054885;28;20450;-87
2022/11/17 14:04:36;;;;;;;2.70;0.90;;;;;;;;;;5055141;28;20396;-89
2022/11/17 14:07:03;;;;;;;1.77;0.70;;;;;;;;;;5054465;28;20401;-87
2022/11/17 14:09:30;;;;;;;2.75;0.90;;;;;;;;;;5054399;28;20747;-87
2022/11/17 14:11:57;;;;;;;2.63;0.90;;;;;;;;;;5054147;28;20381;-87
2022/11/17 14:14:28;;;;;;;2.40;0.90;;;;;;;;;;5054378;28;20385;-87
2022/11/17 14:16:56;;;;;;;2.33;1.00;;;;;;;;;;5054305;28;20370;-87
2022/11/17 14:19:26;;;;;;;3.30;1.00;;;;;;;;;;5054368;28;20534;-87
2022/11/17 14:22:02;;;;;;;4.65;2.47;;;;;;;;;;5054105;28;20389;-87
2022/11/17 14:24:28;;;;;;;2.80;0.90;;;;;;;;;;5033200;28;20402;-87
2022/11/17 14:26:55;;;;;;;3.00;1.43;;;;;;;;;;5034019;28;20411;-86
2022/11/17 14:29:21;;;;;;;4.40;1.10;;;;;;;;;;5044602;28;20378;-88
2022/11/17 14:31:47;;;;;;;2.10;0.90;;;;;;;;;;5043349;28;20379;-87
2022/11/17 14:34:13;;;;;;;2.38;1.02;;;;;;;;;;5050745;28;20384;-87
2022/11/17 14:36:39;;;;;;;2.13;1.00;;;;;;;;;;5054070;28;20395;-87
2022/11/17 14:39:13;;;;;;;3.25;1.02;;;;;;;;;;5052595;28;20871;-87
2022/11/17 14:41:40;;;;;;;3.10;1.05;;;;;;;;;;5053692;28;20414;-87
2022/11/17 14:44:07;;;;;;;2.80;0.90;;;;;;;;;;5053694;28;20456;-86
2022/11/17 14:46:33;;;;;;;6.03;1.33;;;;;;;;;;5053839;28;20381;-87
2022/11/17 14:48:59;;;;;;;2.42;0.70;;;;;;;;;;5053756;28;20928;-87
2022/11/17 14:51:25;;;;;;;2.90;1.00;;;;;;;;;;5053606;28;20381;-86
2022/11/17 14:53:52;;;;;;;3.10;1.30;;;;;;;;;;5053569;28;20878;-86
2022/11/17 14:56:19;;;;;;;2.03;0.90;;;;;;;;;;5048300;28;20367;-87
2022/11/17 14:58:46;;;;;;;2.30;1.30;;;;;;;;;;5053129;28;20744;-87
2022/11/17 15:01:15;;;;;;;2.77;1.07;;;;;;;;;;5042541;28;20391;-89
2022/11/17 15:03:41;;;;;;;3.35;1.00;;;;;;;;;;5053426;28;20382;-87
2022/11/17 15:06:08;;;;;;;2.50;0.80;;;;;;;;;;5039634;28;20458;-87
2022/11/17 15:08:35;;;;;;;2.25;0.70;;;;;;;;;;5051506;28;20412;-87
2022/11/17 15:11:01;;;;;;;1.92;0.57;;;;;;;;;;5053227;28;20446;-87
2022/11/17 15:13:27;;;;;;;1.70;0.60;;;;;;;;;;5040417;28;20388;-86
2022/11/17 15:15:59;;;;;;;2.08;0.68;;;;;;;;;;5053256;28;20374;-87
2022/11/17 15:18:25;;;;;;;1.77;0.60;;;;;;;;;;5053196;28;20782;-87
2022/11/17 15:21:00;;;;;;;1.23;0.50;;;;;;;;;;5052983;28;20381;-87